Aviation Digital Data Service (ADDS)

Output produced by METARs form (0822 UTC 24 August 2016)
found at http://aviationweather.gov/adds/metars/
 
KFAY 240520Z 2406/2506 VRB04KT P6SM FEW060 SCT250